Gary, Indiana
Current Conditions -  °F | °C
As of 8:45 AM on Tuesday 21 Oct 2014 (Local Time) from KGYY Reporting Station
Broken Clouds Broken Clouds  
Wind Chill: 54°   Ceiling: 2600
Heat Index: 54°   Visibility: 10mi
Dew Point: 41°   Wind: 12mph
Humidity: 62%   Direction: 340°NNW
Pressure: 30.12"   Gusts: 29mph
Location:  41.6°N, 87.34°W
Report Text: KGYY 211345Z 34010G25KT 10SM BKN026 BKN045 12/05 A3012
Loading
Personal Weather Stations






























Interactive Weather Map
Tropical Storm Tracking
New forecast layout! Learn more

10-Day Weather Forecast

Advertisements
Track Severe Weather on mobile